Time;durP1;ratioP1;P1;durP2;ratioP2;P2;SDS_P1;SDS_P2;PMS_P1;PMS_P2;Temp;Humidity;BMP_temperature;BMP_pressure;BME280_temperature;BME280_humidity;BME280_pressure;Samples;Min_cycle;Max_cycle;Signal;HPM_P1;HPM_P2
2022/07/24 00:00:34;;;;;;;7.70;5.10;;;19.90;99.90;;;;;;5046202;28;20186;-35
2022/07/24 00:03:00;;;;;;;5.40;4.90;;;19.90;99.90;;;;;;5031778;28;20516;-35
2022/07/24 00:05:26;;;;;;;6.70;5.27;;;19.80;99.90;;;;;;5031600;28;20217;-35
2022/07/24 00:07:52;;;;;;;6.73;6.13;;;19.60;99.90;;;;;;5031124;28;20185;-35
2022/07/24 00:10:17;;;;;;;6.07;5.10;;;19.60;99.90;;;;;;5031578;28;20186;-35
2022/07/24 00:12:43;;;;;;;5.70;5.27;;;19.50;99.90;;;;;;5035129;28;20181;-35
2022/07/24 00:15:10;;;;;;;6.27;5.77;;;19.50;99.90;;;;;;5044415;28;20194;-35
2022/07/24 00:17:35;;;;;;;6.80;5.37;;;19.40;99.90;;;;;;5030993;28;20191;-35
2022/07/24 00:20:03;;;;;;;5.83;5.33;;;19.30;99.90;;;;;;5029959;28;20463;-35
2022/07/24 00:22:28;;;;;;;5.73;5.23;;;19.30;99.90;;;;;;5042791;28;20205;-35
2022/07/24 00:24:54;;;;;;;6.40;5.87;;;19.10;99.90;;;;;;5031487;28;20449;-35
2022/07/24 00:27:19;;;;;;;6.20;5.60;;;19.00;99.90;;;;;;5030536;28;20578;-35
2022/07/24 00:29:45;;;;;;;5.80;5.30;;;19.00;99.90;;;;;;5031330;28;20206;-35
2022/07/24 00:32:11;;;;;;;6.80;6.10;;;18.90;99.90;;;;;;5031293;28;20197;-36
2022/07/24 00:34:36;;;;;;;6.07;5.53;;;19.00;99.90;;;;;;5031292;28;20669;-35
2022/07/24 00:37:02;;;;;;;6.20;5.70;;;18.90;99.90;;;;;;5030644;28;20700;-35
2022/07/24 00:39:28;;;;;;;6.50;5.90;;;18.80;99.90;;;;;;5031138;28;20198;-35
2022/07/24 00:41:54;;;;;;;6.13;5.60;;;18.90;99.90;;;;;;5030919;28;20197;-36
2022/07/24 00:44:20;;;;;;;6.00;5.50;;;18.90;99.90;;;;;;5031756;28;21673;-35
2022/07/24 00:46:46;;;;;;;6.33;5.60;;;18.80;99.90;;;;;;5046623;28;20209;-36
2022/07/24 00:49:15;;;;;;;6.23;5.63;;;18.80;99.90;;;;;;5037106;28;20483;-35
2022/07/24 00:51:42;;;;;;;6.37;5.60;;;18.80;99.90;;;;;;5030999;28;20425;-35
2022/07/24 00:54:10;;;;;;;6.00;5.50;;;18.90;99.90;;;;;;5031002;28;20873;-35
2022/07/24 00:56:36;;;;;;;6.03;5.37;;;18.90;99.90;;;;;;5030141;28;20508;-35
2022/07/24 00:59:03;;;;;;;7.30;5.47;;;18.90;99.90;;;;;;5030748;28;20463;-35
2022/07/24 01:01:30;;;;;;;5.67;5.27;;;18.90;99.90;;;;;;5030381;28;20487;-35
2022/07/24 01:03:57;;;;;;;6.70;4.97;;;18.70;99.90;;;;;;5047326;28;20841;-35
2022/07/24 01:06:23;;;;;;;6.00;5.50;;;18.70;99.90;;;;;;5042336;28;20496;-35
2022/07/24 01:08:50;;;;;;;7.20;5.10;;;18.70;99.90;;;;;;5036947;28;20860;-35
2022/07/24 01:11:16;;;;;;;5.90;5.40;;;18.80;99.90;;;;;;5045739;28;20451;-35
2022/07/24 01:13:42;;;;;;;5.67;5.13;;;18.70;99.90;;;;;;5034883;28;20504;-35
2022/07/24 01:16:09;;;;;;;5.63;5.13;;;18.70;99.90;;;;;;5030746;28;20521;-35
2022/07/24 01:18:36;;;;;;;5.57;5.07;;;18.80;99.90;;;;;;5028227;28;20460;-35
2022/07/24 01:21:02;;;;;;;6.27;5.67;;;18.80;99.90;;;;;;5037955;28;20440;-35
2022/07/24 01:23:28;;;;;;;6.67;5.40;;;18.80;99.90;;;;;;5033595;28;20417;-35
2022/07/24 01:25:54;;;;;;;6.63;5.97;;;18.80;99.90;;;;;;5030148;28;20483;-35
2022/07/24 01:28:20;;;;;;;7.93;5.57;;;18.80;99.90;;;;;;5030210;28;20780;-35
2022/07/24 01:30:45;;;;;;;5.60;5.10;;;18.80;99.90;;;;;;5044314;28;20185;-35
2022/07/24 01:33:11;;;;;;;5.73;5.30;;;18.80;99.90;;;;;;5033726;28;20183;-36
2022/07/24 01:35:37;;;;;;;5.30;4.73;;;18.80;99.90;;;;;;5030353;28;20197;-35
2022/07/24 01:38:03;;;;;;;6.03;5.53;;;18.80;99.90;;;;;;5029329;28;20417;-35
2022/07/24 01:40:29;;;;;;;5.80;5.20;;;18.80;99.90;;;;;;5030331;28;20918;-35
2022/07/24 01:42:55;;;;;;;5.20;4.70;;;18.80;99.90;;;;;;5030077;28;20269;-35
2022/07/24 01:45:21;;;;;;;5.13;4.73;;;18.80;99.90;;;;;;5030253;28;20266;-36
2022/07/24 01:47:47;;;;;;;5.93;5.33;;;18.80;99.90;;;;;;5029185;28;20225;-35
2022/07/24 01:50:14;;;;;;;5.73;5.20;;;18.70;99.90;;;;;;5030351;28;20489;-35
2022/07/24 01:52:40;;;;;;;5.90;5.13;;;18.70;99.90;;;;;;5029869;28;21195;-35
2022/07/24 01:55:06;;;;;;;5.80;5.17;;;18.60;99.90;;;;;;5029786;28;20497;-35
2022/07/24 01:57:32;;;;;;;8.33;5.13;;;18.60;99.90;;;;;;5029362;28;20195;-35
2022/07/24 01:59:59;;;;;;;5.13;4.63;;;18.70;99.90;;;;;;5029915;28;20421;-35
2022/07/24 02:02:26;;;;;;;5.70;5.20;;;18.70;99.90;;;;;;5030019;28;20436;-35
2022/07/24 02:04:52;;;;;;;6.10;5.60;;;18.70;99.90;;;;;;5034530;28;20448;-35
2022/07/24 02:07:17;;;;;;;5.53;5.03;;;18.70;99.90;;;;;;5038031;28;20460;-35
2022/07/24 02:09:43;;;;;;;5.43;4.93;;;18.70;99.90;;;;;;5029739;28;20417;-35
2022/07/24 02:12:09;;;;;;;6.27;5.77;;;18.70;99.90;;;;;;5029996;28;20281;-35
2022/07/24 02:14:34;;;;;;;8.43;4.93;;;18.60;99.90;;;;;;5029895;28;20179;-35
2022/07/24 02:17:00;;;;;;;5.80;5.40;;;18.60;99.90;;;;;;5032295;28;20218;-35
2022/07/24 02:19:26;;;;;;;5.57;4.97;;;18.50;99.90;;;;;;5032366;28;20209;-35
2022/07/24 02:21:52;;;;;;;5.73;5.30;;;18.50;99.90;;;;;;5044713;28;20186;-35
2022/07/24 02:24:17;;;;;;;5.80;5.40;;;18.40;99.90;;;;;;5043253;28;20182;-35
2022/07/24 02:26:43;;;;;;;5.30;4.90;;;18.40;99.90;;;;;;5044528;28;20264;-35
2022/07/24 02:29:09;;;;;;;5.93;5.43;;;18.40;99.90;;;;;;5033718;28;20269;-35
2022/07/24 02:31:34;;;;;;;5.70;5.30;;;18.40;99.90;;;;;;5033573;28;20191;-36
2022/07/24 02:34:00;;;;;;;5.03;4.63;;;18.40;99.90;;;;;;5033564;28;20232;-35
2022/07/24 02:36:26;;;;;;;6.17;5.57;;;18.50;99.90;;;;;;5033313;28;20534;-36
2022/07/24 02:38:52;;;;;;;6.00;5.33;;;18.60;99.90;;;;;;5032924;28;20424;-35
2022/07/24 02:41:18;;;;;;;5.90;5.47;;;18.60;99.90;;;;;;5033427;28;20424;-35
2022/07/24 02:43:44;;;;;;;5.83;5.33;;;18.70;99.90;;;;;;5033456;28;20182;-35
2022/07/24 02:46:09;;;;;;;5.83;5.33;;;18.60;99.90;;;;;;5033276;28;20240;-35
2022/07/24 02:48:35;;;;;;;5.03;4.63;;;18.50;99.90;;;;;;5032676;28;20194;-35
2022/07/24 02:51:01;;;;;;;6.60;5.07;;;18.60;99.90;;;;;;5032974;28;20194;-35
2022/07/24 02:53:26;;;;;;;6.00;5.50;;;18.60;99.90;;;;;;5033177;28;20533;-35
2022/07/24 02:55:52;;;;;;;6.03;5.50;;;18.60;99.90;;;;;;5036323;28;20235;-36
2022/07/24 02:58:18;;;;;;;5.83;5.40;;;18.50;99.90;;;;;;5040920;28;20672;-35
2022/07/24 03:00:43;;;;;;;5.33;4.90;;;18.50;99.90;;;;;;5032983;28;20203;-35
2022/07/24 03:03:09;;;;;;;5.70;5.20;;;18.50;99.90;;;;;;5033101;28;20257;-35
2022/07/24 03:05:35;;;;;;;5.97;5.47;;;18.50;99.90;;;;;;5032700;28;20252;-35
2022/07/24 03:08:01;;;;;;;7.53;5.30;;;18.60;99.90;;;;;;5032157;28;20214;-35
2022/07/24 03:10:26;;;;;;;5.57;5.17;;;18.60;99.90;;;;;;5033026;28;20190;-35
2022/07/24 03:12:52;;;;;;;5.77;5.37;;;18.60;99.90;;;;;;5032814;28;20883;-35
2022/07/24 03:15:18;;;;;;;6.17;5.30;;;18.60;99.90;;;;;;5032938;28;20193;-35
2022/07/24 03:17:55;;;;;;;6.27;5.77;;;18.50;99.90;;;;;;5032119;28;20280;-35
2022/07/24 03:20:22;;;;;;;5.67;5.27;;;18.50;99.90;;;;;;5032830;28;20190;-35
2022/07/24 03:22:49;;;;;;;5.33;4.93;;;18.50;99.90;;;;;;5044608;28;20590;-35
2022/07/24 03:25:15;;;;;;;5.90;5.40;;;18.50;99.90;;;;;;5046041;28;20416;-35
2022/07/24 03:27:41;;;;;;;6.40;5.90;;;18.50;99.90;;;;;;5043062;28;21025;-35
2022/07/24 03:30:08;;;;;;;5.20;4.80;;;18.50;99.90;;;;;;5045473;28;20425;-35
2022/07/24 03:32:34;;;;;;;5.90;5.40;;;18.60;99.90;;;;;;5032434;28;20421;-35
2022/07/24 03:35:00;;;;;;;6.50;5.93;;;18.50;99.90;;;;;;5032207;28;20421;-35
2022/07/24 03:37:25;;;;;;;9.90;5.57;;;18.60;99.90;;;;;;5030272;28;20616;-35
2022/07/24 03:39:51;;;;;;;6.30;5.53;;;18.50;99.90;;;;;;5032359;28;20571;-35
2022/07/24 03:42:17;;;;;;;6.80;5.93;;;18.50;99.90;;;;;;5032367;28;20795;-35
2022/07/24 03:44:42;;;;;;;6.47;5.77;;;18.50;99.90;;;;;;5032285;28;20198;-35
2022/07/24 03:47:08;;;;;;;5.97;5.47;;;18.50;99.90;;;;;;5031491;28;20198;-35
2022/07/24 03:49:34;;;;;;;6.37;5.83;;;18.50;99.90;;;;;;5040290;28;20272;-35
2022/07/24 03:52:00;;;;;;;6.20;5.70;;;18.50;99.90;;;;;;5041028;28;20186;-35
2022/07/24 03:54:25;;;;;;;6.57;5.97;;;18.50;99.90;;;;;;5030841;28;20549;-35
2022/07/24 03:56:51;;;;;;;5.70;4.60;;;18.50;99.90;;;;;;5031477;28;20197;-35
2022/07/24 03:59:17;;;;;;;6.20;5.70;;;18.50;99.90;;;;;;5031874;28;20248;-35
2022/07/24 04:01:43;;;;;;;5.37;4.97;;;18.50;99.90;;;;;;5032161;28;20711;-35
2022/07/24 04:04:09;;;;;;;6.47;5.97;;;18.50;99.90;;;;;;5031556;28;20478;-35
2022/07/24 04:06:35;;;;;;;6.23;5.63;;;18.40;99.90;;;;;;5031360;28;20218;-35
2022/07/24 04:09:02;;;;;;;6.37;5.80;;;18.40;99.90;;;;;;5031560;28;20186;-35
2022/07/24 04:11:28;;;;;;;5.93;5.43;;;18.40;99.90;;;;;;5033490;28;20179;-35
2022/07/24 04:13:54;;;;;;;6.60;6.07;;;18.40;99.90;;;;;;5042162;28;20802;-35
2022/07/24 04:16:19;;;;;;;7.53;5.90;;;18.40;99.90;;;;;;5031798;28;20254;-36
2022/07/24 04:18:45;;;;;;;6.50;5.90;;;18.30;99.90;;;;;;5030721;28;20192;-35
2022/07/24 04:21:11;;;;;;;6.03;5.43;;;18.20;99.90;;;;;;5040451;28;20270;-35
2022/07/24 04:23:37;;;;;;;10.30;5.80;;;18.20;99.90;;;;;;5039385;28;20190;-35
2022/07/24 04:26:03;;;;;;;6.13;5.63;;;18.30;99.90;;;;;;5046429;28;20597;-35
2022/07/24 04:28:29;;;;;;;5.90;5.40;;;18.30;99.90;;;;;;5031237;28;20433;-35
2022/07/24 04:30:55;;;;;;;7.57;6.20;;;18.30;99.90;;;;;;5031565;28;20916;-35
2022/07/24 04:33:21;;;;;;;6.73;6.10;;;18.40;99.90;;;;;;5031192;28;20195;-35
2022/07/24 04:35:46;;;;;;;6.17;5.67;;;18.40;99.90;;;;;;5031312;28;20187;-35
2022/07/24 04:38:12;;;;;;;6.67;6.07;;;18.50;99.90;;;;;;5029902;28;20178;-35
2022/07/24 04:40:39;;;;;;;5.80;5.30;;;18.50;99.90;;;;;;5031315;28;20194;-35
2022/07/24 04:43:04;;;;;;;6.40;5.80;;;18.50;99.90;;;;;;5031091;28;20421;-35
2022/07/24 04:45:30;;;;;;;8.80;5.87;;;18.60;99.90;;;;;;5031192;28;20425;-35
2022/07/24 04:47:56;;;;;;;6.60;6.00;;;18.60;99.90;;;;;;5030124;28;20214;-35
2022/07/24 04:50:22;;;;;;;6.40;5.90;;;18.60;99.90;;;;;;5030762;28;20182;-35
2022/07/24 04:52:47;;;;;;;5.80;5.40;;;18.60;99.90;;;;;;5033304;28;20190;-35
2022/07/24 04:55:13;;;;;;;6.27;5.77;;;18.60;99.90;;;;;;5047742;28;20247;-35
2022/07/24 04:57:40;;;;;;;6.00;5.60;;;18.60;99.90;;;;;;5032651;28;20194;-35
2022/07/24 05:00:09;;;;;;;6.80;6.20;;;18.60;99.90;;;;;;5030803;28;20991;-35
2022/07/24 05:02:34;;;;;;;6.13;5.60;;;18.70;99.90;;;;;;5030663;28;20421;-35
2022/07/24 05:05:00;;;;;;;7.30;6.23;;;18.70;99.90;;;;;;5030795;28;20444;-35
2022/07/24 05:07:26;;;;;;;6.27;5.77;;;18.80;99.90;;;;;;5030236;28;20214;-35
2022/07/24 05:09:52;;;;;;;6.80;6.20;;;18.90;99.90;;;;;;5030726;28;20424;-35
2022/07/24 05:12:18;;;;;;;6.63;6.07;;;19.00;99.90;;;;;;5030664;28;20286;-35
2022/07/24 05:14:43;;;;;;;6.20;5.70;;;19.10;99.90;;;;;;5030700;28;20265;-35
2022/07/24 05:17:09;;;;;;;6.87;6.13;;;19.10;99.90;;;;;;5029594;28;20203;-35
2022/07/24 05:19:35;;;;;;;6.30;5.73;;;19.20;99.90;;;;;;5030566;28;20247;-35
2022/07/24 05:22:00;;;;;;;6.20;5.70;;;19.30;99.90;;;;;;5041486;28;20562;-35
2022/07/24 05:24:26;;;;;;;11.20;5.90;;;19.30;99.90;;;;;;5030639;28;20193;-36
2022/07/24 05:26:52;;;;;;;7.33;6.73;;;19.40;99.90;;;;;;5040651;28;20202;-35
2022/07/24 05:29:18;;;;;;;6.33;5.83;;;19.50;99.90;;;;;;5035666;28;20221;-36
2022/07/24 05:31:43;;;;;;;6.07;5.53;;;19.50;99.90;;;;;;5030005;28;20197;-35
2022/07/24 05:34:09;;;;;;;6.43;5.83;;;19.50;99.90;;;;;;5030278;28;20183;-35
2022/07/24 05:36:35;;;;;;;6.40;5.87;;;19.60;99.90;;;;;;5029690;28;20252;-35
2022/07/24 05:39:01;;;;;;;9.30;6.47;;;19.60;99.90;;;;;;5030089;28;20420;-35
2022/07/24 05:41:27;;;;;;;6.57;5.97;;;19.70;99.90;;;;;;5030196;28;20943;-35
2022/07/24 05:43:53;;;;;;;6.70;6.00;;;19.70;99.90;;;;;;5030243;28;20280;-35
2022/07/24 05:46:19;;;;;;;6.90;6.40;;;19.70;99.90;;;;;;5029941;28;20206;-35
2022/07/24 05:48:46;;;;;;;6.83;6.20;;;19.90;99.90;;;;;;5035075;28;20448;-35
2022/07/24 05:51:11;;;;;;;6.40;5.80;;;20.00;99.90;;;;;;5043460;28;20524;-35
2022/07/24 05:53:37;;;;;;;5.80;5.40;;;20.10;99.90;;;;;;5029981;28;20512;-35
2022/07/24 05:56:04;;;;;;;6.70;6.10;;;20.20;99.90;;;;;;5030109;28;20175;-36
2022/07/24 05:58:30;;;;;;;6.13;5.53;;;20.30;99.90;;;;;;5029177;28;20792;-35
2022/07/24 06:00:55;;;;;;;5.83;5.33;;;20.40;99.90;;;;;;5036920;28;20467;-35
2022/07/24 06:03:21;;;;;;;6.80;6.20;;;20.60;99.90;;;;;;5047009;28;20781;-35
2022/07/24 06:05:47;;;;;;;5.73;5.23;;;20.70;99.90;;;;;;5040329;28;20231;-35
2022/07/24 06:08:13;;;;;;;5.50;5.10;;;20.90;99.90;;;;;;5036594;28;20182;-35
2022/07/24 06:10:39;;;;;;;5.60;5.20;;;21.10;99.90;;;;;;5040106;28;20409;-35
2022/07/24 06:13:05;;;;;;;7.80;6.53;;;21.20;99.90;;;;;;5044965;28;20178;-35
2022/07/24 06:15:30;;;;;;;5.87;5.07;;;21.40;99.90;;;;;;5032026;28;20519;-36
2022/07/24 06:17:56;;;;;;;5.77;5.27;;;21.50;99.90;;;;;;5029166;28;20421;-35
2022/07/24 06:20:22;;;;;;;6.27;5.67;;;21.60;99.90;;;;;;5039006;28;20190;-35
2022/07/24 06:22:48;;;;;;;5.40;5.00;;;21.70;99.90;;;;;;5038969;28;20437;-35
2022/07/24 06:25:14;;;;;;;5.83;5.20;;;21.80;99.90;;;;;;5042151;28;20519;-35
2022/07/24 06:27:45;;;;;;;5.37;4.87;;;21.90;99.90;;;;;;5040922;28;20459;-35
2022/07/24 06:30:23;;;;;;;5.67;5.17;;;22.00;99.90;;;;;;5031425;28;20486;-35
2022/07/24 06:32:49;;;;;;;6.10;5.13;;;22.20;99.90;;;;;;5029716;28;20460;-35
2022/07/24 06:35:15;;;;;;;6.07;5.47;;;22.30;99.90;;;;;;5029645;28;20428;-36
2022/07/24 06:37:41;;;;;;;5.63;5.13;;;22.40;99.90;;;;;;5028968;28;20421;-36
2022/07/24 06:40:07;;;;;;;5.70;5.20;;;22.50;99.90;;;;;;5031557;28;20927;-35
2022/07/24 06:42:33;;;;;;;6.13;4.97;;;22.60;99.90;;;;;;5044961;28;20189;-36
2022/07/24 06:44:59;;;;;;;5.77;5.27;;;22.70;99.90;;;;;;5029725;28;20424;-35
2022/07/24 06:47:25;;;;;;;5.33;4.83;;;22.80;99.90;;;;;;5029057;28;20308;-35
2022/07/24 06:49:52;;;;;;;6.20;5.07;;;22.90;99.90;;;;;;5029354;28;20274;-35
2022/07/24 06:52:18;;;;;;;6.03;5.47;;;22.90;99.90;;;;;;5029577;28;20432;-35
2022/07/24 06:54:44;;;;;;;5.07;4.67;;;22.90;99.90;;;;;;5029268;28;20417;-36
2022/07/24 06:57:10;;;;;;;5.87;5.20;;;23.00;99.90;;;;;;5028902;28;20195;-36
2022/07/24 06:59:35;;;;;;;6.20;5.70;;;23.20;99.90;;;;;;5029273;28;20205;-35
2022/07/24 07:02:01;;;;;;;5.13;4.73;;;23.30;99.90;;;;;;5030922;28;20187;-36
2022/07/24 07:04:27;;;;;;;5.37;4.87;;;23.40;99.90;;;;;;5041659;28;20268;-35
2022/07/24 07:06:52;;;;;;;6.83;4.93;;;23.50;99.90;;;;;;5044384;28;20255;-36
2022/07/24 07:09:18;;;;;;;5.73;5.13;;;23.60;99.90;;;;;;5044290;28;20187;-36
2022/07/24 07:11:44;;;;;;;6.20;5.40;;;23.70;99.90;;;;;;5032813;28;20190;-36
2022/07/24 07:14:10;;;;;;;4.77;4.47;;;23.80;99.90;;;;;;5033137;28;20425;-35
2022/07/24 07:16:35;;;;;;;5.33;4.90;;;23.80;99.90;;;;;;5032516;28;20678;-35
2022/07/24 07:19:01;;;;;;;5.77;5.27;;;24.00;99.90;;;;;;5042093;28;20661;-35
2022/07/24 07:21:27;;;;;;;5.60;5.20;;;24.00;99.90;;;;;;5050522;28;20181;-35
2022/07/24 07:23:53;;;;;;;5.20;4.80;;;24.10;99.90;;;;;;5032747;28;20584;-35
2022/07/24 07:26:19;;;;;;;6.20;5.30;;;24.10;99.90;;;;;;5032370;28;20217;-35
2022/07/24 07:28:45;;;;;;;5.47;5.00;;;24.20;99.90;;;;;;5031942;28;20264;-35
2022/07/24 07:31:10;;;;;;;5.37;4.97;;;24.30;99.90;;;;;;5036140;28;21129;-35
2022/07/24 07:33:36;;;;;;;6.37;5.77;;;24.30;99.90;;;;;;5047305;28;20189;-35
2022/07/24 07:36:02;;;;;;;6.10;5.43;;;24.50;99.90;;;;;;5038255;28;20281;-35
2022/07/24 07:38:28;;;;;;;5.63;5.13;;;24.50;99.90;;;;;;5030702;28;20320;-35
2022/07/24 07:40:54;;;;;;;5.77;5.27;;;24.50;99.90;;;;;;5032065;28;20516;-35
2022/07/24 07:43:19;;;;;;;6.10;5.60;;;24.60;99.90;;;;;;5032469;28;20283;-35
2022/07/24 07:45:45;;;;;;;6.10;5.70;;;24.60;99.90;;;;;;5032255;28;20187;-35
2022/07/24 07:48:11;;;;;;;5.90;5.30;;;24.70;99.90;;;;;;5031594;28;20186;-35
2022/07/24 07:50:36;;;;;;;5.93;5.40;;;24.70;99.90;;;;;;5032158;28;20194;-36
2022/07/24 07:53:02;;;;;;;5.83;5.30;;;24.70;99.90;;;;;;5038891;28;20217;-35
2022/07/24 07:55:28;;;;;;;5.50;5.10;;;24.80;99.90;;;;;;5051910;28;20196;-35
2022/07/24 07:57:54;;;;;;;5.07;4.70;;;24.80;99.60;;;;;;5051215;28;20816;-35
2022/07/24 08:00:20;;;;;;;6.60;6.00;;;24.80;99.50;;;;;;5051967;28;20185;-35
2022/07/24 08:02:46;;;;;;;5.90;5.30;;;24.80;99.70;;;;;;5051835;28;20421;-35
2022/07/24 08:05:12;;;;;;;6.10;5.60;;;24.80;99.90;;;;;;5051759;28;20436;-35
2022/07/24 08:07:37;;;;;;;7.53;6.60;;;24.80;99.90;;;;;;5050928;28;20271;-35
2022/07/24 08:10:04;;;;;;;5.83;5.30;;;24.80;99.40;;;;;;5051414;28;20264;-35
2022/07/24 08:12:30;;;;;;;6.30;5.70;;;24.70;99.40;;;;;;5039040;28;20565;-36
2022/07/24 08:14:56;;;;;;;6.00;5.50;;;24.60;99.40;;;;;;5045229;28;20428;-35
2022/07/24 08:17:22;;;;;;;6.97;6.47;;;24.50;99.60;;;;;;5043494;28;20190;-35
2022/07/24 08:19:48;;;;;;;5.93;5.43;;;24.50;99.20;;;;;;5048377;28;20454;-35
2022/07/24 08:22:13;;;;;;;6.60;6.00;;;24.40;99.60;;;;;;5042515;28;20285;-35
2022/07/24 08:24:40;;;;;;;6.37;5.87;;;24.40;99.90;;;;;;5040860;28;20435;-35
2022/07/24 08:27:06;;;;;;;6.23;5.73;;;24.40;99.90;;;;;;5039350;28;20233;-35
2022/07/24 08:29:32;;;;;;;6.93;6.33;;;24.40;99.90;;;;;;5041582;28;20428;-35
2022/07/24 08:31:58;;;;;;;6.33;5.80;;;24.40;99.90;;;;;;5050874;28;20466;-35
2022/07/24 08:34:24;;;;;;;6.53;5.90;;;24.50;99.90;;;;;;5045072;28;20771;-35
2022/07/24 08:36:50;;;;;;;6.57;5.97;;;24.50;99.80;;;;;;5045581;28;20190;-35
2022/07/24 08:39:15;;;;;;;7.43;6.67;;;24.50;99.40;;;;;;5043876;28;20193;-35
2022/07/24 08:41:42;;;;;;;6.67;6.17;;;24.50;99.50;;;;;;5036362;28;21128;-35
2022/07/24 08:44:09;;;;;;;7.03;6.43;;;24.40;99.70;;;;;;5057888;28;20205;-35
2022/07/24 08:46:41;;;;;;;6.73;6.23;;;24.40;99.90;;;;;;5063129;28;20558;-35
2022/07/24 08:49:12;;;;;;;6.80;6.30;;;24.40;99.90;;;;;;5045813;28;20453;-36
2022/07/24 08:51:40;;;;;;;7.03;6.47;;;24.40;99.90;;;;;;5043996;28;20463;-35
2022/07/24 08:54:06;;;;;;;7.73;7.03;;;24.50;99.90;;;;;;5055312;28;20569;-35
2022/07/24 08:56:36;;;;;;;7.57;6.80;;;24.50;99.90;;;;;;5049293;28;20452;-35
2022/07/24 08:59:03;;;;;;;7.23;6.00;;;24.60;99.90;;;;;;5057929;28;20455;-35
2022/07/24 09:01:29;;;;;;;7.77;7.17;;;24.60;99.90;;;;;;5057397;28;20455;-35
2022/07/24 09:03:54;;;;;;;7.13;6.50;;;24.70;99.90;;;;;;5045890;28;20436;-35
2022/07/24 09:06:20;;;;;;;7.63;7.03;;;24.70;99.90;;;;;;5060184;28;20495;-35
2022/07/24 09:09:01;;;;;;;7.77;7.17;;;24.80;99.90;;;;;;5060792;28;20280;-35
2022/07/24 09:11:30;;;;;;;8.47;7.60;;;24.90;99.90;;;;;;5064944;28;20858;-35
2022/07/24 09:16:46;;;;;;;7.73;7.00;;;25.00;98.50;;;;;;5042607;28;20460;-35
2022/07/24 09:19:13;;;;;;;7.90;7.10;;;25.10;99.30;;;;;;5042557;28;20442;-35
2022/07/24 09:21:41;;;;;;;7.57;6.87;;;25.20;99.60;;;;;;5043434;28;20487;-36
2022/07/24 09:24:13;;;;;;;8.27;7.47;;;25.30;99.10;;;;;;5064472;28;20452;-35
2022/07/24 09:26:55;;;;;;;8.10;7.50;;;25.50;98.40;;;;;;5060512;28;20896;-36
2022/07/24 09:29:23;;;;;;;8.00;7.20;;;25.60;98.80;;;;;;5049454;28;20448;-35
2022/07/24 09:31:51;;;;;;;8.50;7.57;;;25.70;98.30;;;;;;5042497;28;20448;-34
2022/07/24 09:34:17;;;;;;;8.83;7.80;;;25.80;97.50;;;;;;5059444;28;20508;-35
2022/07/24 09:37:00;;;;;;;7.60;6.90;;;25.90;97.70;;;;;;5040471;28;20456;-35
2022/07/24 09:39:27;;;;;;;8.30;7.60;;;25.90;97.70;;;;;;5042811;28;20437;-35
2022/07/24 09:41:55;;;;;;;8.07;7.37;;;25.90;97.70;;;;;;5046998;28;20463;-35
2022/07/24 09:44:23;;;;;;;7.93;7.33;;;26.00;97.30;;;;;;5055968;28;20462;-35
2022/07/24 09:46:55;;;;;;;8.77;7.97;;;26.10;97.70;;;;;;5056496;28;20536;-35
2022/07/24 09:49:21;;;;;;;8.70;8.00;;;26.10;97.40;;;;;;5052017;28;21124;-35
2022/07/24 09:52:05;;;;;;;8.93;8.03;;;26.20;97.60;;;;;;5044004;28;20466;-35
2022/07/24 09:54:38;;;;;;;8.20;7.43;;;26.20;97.20;;;;;;5045751;28;20448;-35
2022/07/24 09:57:17;;;;;;;8.13;7.43;;;26.30;97.60;;;;;;5038282;28;20470;-35
2022/07/24 09:59:47;;;;;;;9.03;7.43;;;26.40;97.50;;;;;;5047753;28;21091;-35
2022/07/24 10:02:18;;;;;;;7.30;6.70;;;26.40;97.30;;;;;;5041297;28;20460;-35
2022/07/24 10:04:45;;;;;;;7.80;7.20;;;26.60;97.00;;;;;;5057694;28;20450;-35
2022/07/24 10:07:12;;;;;;;8.03;7.33;;;26.70;96.10;;;;;;5056219;28;21078;-35
2022/07/24 10:09:42;;;;;;;7.60;7.00;;;26.80;96.20;;;;;;5047871;28;20458;-35
2022/07/24 10:12:16;;;;;;;7.87;7.17;;;26.90;96.50;;;;;;5054508;28;20472;-35
2022/07/24 10:14:46;;;;;;;7.73;7.07;;;27.00;96.60;;;;;;5039688;28;20444;-35
2022/07/24 10:17:14;;;;;;;8.57;7.67;;;27.10;96.70;;;;;;5052626;28;20461;-35
2022/07/24 10:19:48;;;;;;;7.57;6.97;;;27.20;96.10;;;;;;5030143;28;20468;-35
2022/07/24 10:22:20;;;;;;;8.30;7.60;;;27.30;97.30;;;;;;5041973;28;20870;-35
2022/07/24 10:25:04;;;;;;;8.30;7.50;;;27.40;95.30;;;;;;5053427;28;20468;-35
2022/07/24 10:27:34;;;;;;;8.00;7.30;;;27.40;95.30;;;;;;5042771;28;20849;-35
2022/07/24 10:30:07;;;;;;;7.90;7.17;;;27.50;95.60;;;;;;5059674;28;20452;-37
2022/07/24 10:32:34;;;;;;;7.90;7.10;;;27.50;95.90;;;;;;5047003;28;20551;-35
2022/07/24 10:35:22;;;;;;;7.60;6.87;;;27.60;94.70;;;;;;5028506;28;20428;-35
2022/07/24 10:37:48;;;;;;;8.70;7.90;;;27.60;95.30;;;;;;5042546;28;20923;-35
2022/07/24 10:40:26;;;;;;;7.73;7.03;;;27.60;94.80;;;;;;5048016;28;20434;-35
2022/07/24 10:43:09;;;;;;;10.00;7.73;;;27.70;94.40;;;;;;5043376;28;20680;-35
2022/07/24 10:45:47;;;;;;;7.10;6.50;;;27.80;95.20;;;;;;5033597;28;20428;-35
2022/07/24 10:48:22;;;;;;;7.53;6.70;;;27.90;94.90;;;;;;5036546;28;20432;-35
2022/07/24 10:51:07;;;;;;;7.93;7.23;;;28.00;94.20;;;;;;5036423;28;20426;-35
2022/07/24 10:53:38;;;;;;;7.93;7.17;;;28.00;93.10;;;;;;5049620;28;20496;-35
2022/07/24 10:56:28;;;;;;;7.10;6.50;;;28.00;94.20;;;;;;5034108;28;20415;-35
2022/07/24 10:59:41;;;;;;;7.97;7.23;;;28.10;94.00;;;;;;5032235;28;20599;-35
2022/07/24 11:02:29;;;;;;;8.43;7.00;;;28.10;93.00;;;;;;5032231;28;20456;-35
2022/07/24 11:05:27;;;;;;;7.03;6.53;;;28.20;93.10;;;;;;5032719;28;20456;-35
2022/07/24 11:08:11;;;;;;;8.47;7.17;;;28.20;94.70;;;;;;5041135;28;20495;-35
2022/07/24 11:10:51;;;;;;;7.40;6.80;;;28.10;92.90;;;;;;5052961;28;20416;-35
2022/07/24 11:13:37;;;;;;;7.83;7.07;;;28.20;94.00;;;;;;5052482;28;20420;-35
2022/07/24 11:16:15;;;;;;;7.07;6.47;;;28.10;93.60;;;;;;5052199;28;20436;-35
2022/07/24 11:18:49;;;;;;;7.60;6.90;;;28.10;93.30;;;;;;5050968;28;20764;-36
2022/07/24 11:21:29;;;;;;;7.63;7.00;;;28.20;93.60;;;;;;5050620;28;20420;-35
2022/07/24 11:24:13;;;;;;;8.40;7.43;;;28.30;92.80;;;;;;5032581;28;20421;-35
2022/07/24 11:26:43;;;;;;;7.93;7.33;;;28.30;93.20;;;;;;5032162;28;20886;-35
2022/07/24 11:29:24;;;;;;;7.07;6.47;;;28.40;92.60;;;;;;5032473;28;20429;-35
2022/07/24 11:31:55;;;;;;;7.00;6.40;;;28.40;91.90;;;;;;5032572;28;20931;-35
2022/07/24 11:34:22;;;;;;;7.30;6.70;;;28.50;91.90;;;;;;5032352;28;20468;-35
2022/07/24 11:36:50;;;;;;;8.60;7.90;;;28.50;92.10;;;;;;5031949;28;20433;-35
2022/07/24 11:39:18;;;;;;;7.60;6.90;;;28.60;91.70;;;;;;5032386;28;20547;-35
2022/07/24 11:41:45;;;;;;;7.60;7.00;;;28.60;91.70;;;;;;5032398;28;20429;-35
2022/07/24 11:44:11;;;;;;;7.20;6.60;;;28.60;92.30;;;;;;5032343;28;20528;-35
2022/07/24 11:46:39;;;;;;;7.87;7.07;;;28.60;92.20;;;;;;5031548;28;20480;-35
2022/07/24 11:49:08;;;;;;;8.60;7.20;;;28.60;91.20;;;;;;5031793;28;20809;-35
2022/07/24 11:51:45;;;;;;;8.43;7.20;;;28.60;91.40;;;;;;5032210;28;20417;-35
2022/07/24 11:54:20;;;;;;;6.97;6.37;;;28.70;91.60;;;;;;5032277;28;20425;-35
2022/07/24 11:56:47;;;;;;;6.87;6.27;;;28.70;91.60;;;;;;5031452;28;20429;-35
2022/07/24 11:59:32;;;;;;;8.50;7.33;;;28.70;90.60;;;;;;5031841;28;20437;-35
2022/07/24 12:02:05;;;;;;;7.33;6.60;;;28.70;91.00;;;;;;5032800;28;20436;-35
2022/07/24 12:04:32;;;;;;;7.70;7.00;;;28.70;92.00;;;;;;5035976;28;20516;-35
2022/07/24 12:06:58;;;;;;;8.33;6.33;;;28.70;89.60;;;;;;5040156;28;20451;-35
2022/07/24 12:09:24;;;;;;;8.20;6.90;;;28.70;90.90;;;;;;5045458;28;20452;-35
2022/07/24 12:11:51;;;;;;;7.87;7.20;;;28.80;90.90;;;;;;5038709;28;20429;-35
2022/07/24 12:14:19;;;;;;;6.93;6.23;;;28.70;88.70;;;;;;5031988;28;20216;-35
2022/07/24 12:16:52;;;;;;;7.23;6.40;;;28.70;89.10;;;;;;5048819;28;20962;-35
2022/07/24 12:19:22;;;;;;;7.07;6.47;;;28.80;89.90;;;;;;5037450;28;20444;-35
2022/07/24 12:21:51;;;;;;;7.17;6.47;;;28.80;87.20;;;;;;5042553;28;20794;-35
2022/07/24 12:24:17;;;;;;;7.70;7.00;;;28.80;88.70;;;;;;5033081;28;20523;-35
2022/07/24 12:26:58;;;;;;;6.53;5.97;;;28.80;88.20;;;;;;5047564;28;21241;-35
2022/07/24 12:29:26;;;;;;;7.00;6.40;;;28.90;89.60;;;;;;5043626;28;21257;-35
2022/07/24 12:32:14;;;;;;;7.27;6.60;;;28.90;87.80;;;;;;5043899;28;20424;-35
2022/07/24 12:34:44;;;;;;;6.40;5.90;;;28.90;88.80;;;;;;5035302;28;20566;-35
2022/07/24 12:37:15;;;;;;;8.20;7.40;;;29.00;90.10;;;;;;5030716;28;20907;-35
2022/07/24 12:39:52;;;;;;;7.50;6.80;;;29.00;88.00;;;;;;5047922;28;20449;-35
2022/07/24 12:42:28;;;;;;;7.20;6.60;;;29.00;87.60;;;;;;5031300;28;20424;-35
2022/07/24 12:44:54;;;;;;;8.07;7.30;;;29.00;89.20;;;;;;5030924;28;20425;-35
2022/07/24 12:47:19;;;;;;;7.07;6.40;;;29.10;89.40;;;;;;5030400;28;20480;-35
2022/07/24 12:49:50;;;;;;;7.07;6.40;;;29.10;87.60;;;;;;5031092;28;20195;-35
2022/07/24 12:52:28;;;;;;;6.37;5.87;;;29.10;87.90;;;;;;5031191;28;20248;-35